Time;durP1;ratioP1;P1;durP2;ratioP2;P2;SDS_P1;SDS_P2;PMS_P1;PMS_P2;Temp;Humidity;BMP_temperature;BMP_pressure;BME280_temperature;BME280_humidity;BME280_pressure;Samples;Min_cycle;Max_cycle;Signal;HPM_P1;HPM_P2
2021/01/30 00:01:32;;;;;;;;;;;;;;;7.68;49.73;99408.31;5001927;28;19913;-82
2021/01/30 00:04:16;;;;;;;;;;;;;;;7.56;50.13;99405.53;5018467;28;19913;-78
2021/01/30 00:07:02;;;;;;;;;;;;;;;7.64;49.50;99405.47;5002239;28;19913;-79
2021/01/30 00:09:48;;;;;;;;;;;;;;;7.44;49.99;99413.53;5000986;28;19913;-82
2021/01/30 00:12:33;;;;;;;;;;;;;;;7.46;50.50;99414.81;5004292;28;19913;-79
2021/01/30 00:15:20;;;;;;;;;;;;;;;7.54;50.03;99410.47;5002929;28;19917;-80
2021/01/30 00:18:06;;;;;;;;;;;;;;;7.52;50.12;99413.47;5013078;28;19913;-79
2021/01/30 00:20:50;;;;;;;;;;;;;;;7.61;50.03;99395.31;5013509;28;19920;-81
2021/01/30 00:23:35;;;;;;;;;;;;;;;7.99;51.62;99383.56;5015946;28;19914;-80
2021/01/30 00:26:19;;;;;;;;;;;;;;;7.53;50.13;99404.25;5000871;28;19914;-81
2021/01/30 00:29:03;;;;;;;;;;;;;;;7.34;49.94;99406.59;4997218;28;19914;-81
2021/01/30 00:31:49;;;;;;;;;;;;;;;7.62;49.99;99404.19;5015733;28;19913;-79
2021/01/30 00:34:35;;;;;;;;;;;;;;;7.70;48.93;99392.53;4981766;28;20392;-81
2021/01/30 00:37:21;;;;;;;;;;;;;;;7.39;48.29;99398.28;4970691;28;738441;-79
2021/01/30 00:40:06;;;;;;;;;;;;;;;7.12;50.89;99401.44;4983819;28;19913;-79
2021/01/30 00:42:51;;;;;;;;;;;;;;;6.87;50.61;99417.41;4997394;28;19913;-82
2021/01/30 00:45:35;;;;;;;;;;;;;;;6.98;49.49;99408.97;5012673;28;20280;-81
2021/01/30 00:48:20;;;;;;;;;;;;;;;7.45;49.56;99396.19;5012855;28;19913;-79
2021/01/30 00:51:05;;;;;;;;;;;;;;;7.31;49.73;99391.78;5029168;28;19935;-80
2021/01/30 00:53:50;;;;;;;;;;;;;;;7.16;51.73;99424.78;5003446;28;19914;-80
2021/01/30 00:56:35;;;;;;;;;;;;;;;7.38;49.88;99418.34;4993467;28;20372;-80
2021/01/30 00:59:21;;;;;;;;;;;;;;;7.60;49.33;99401.03;5007327;28;20379;-79
2021/01/30 01:02:06;;;;;;;;;;;;;;;7.76;51.61;99390.44;4996971;28;19925;-77
2021/01/30 01:05:00;;;;;;;;;;;;;;;7.57;50.14;99398.97;5003731;28;19913;-82
2021/01/30 01:07:45;;;;;;;;;;;;;;;7.52;49.54;99405.38;5001517;28;19914;-80
2021/01/30 01:10:29;;;;;;;;;;;;;;;7.64;49.49;99412.78;5011355;28;19913;-79
2021/01/30 01:13:14;;;;;;;;;;;;;;;7.66;50.60;99414.06;5009032;28;19933;-78
2021/01/30 01:15:58;;;;;;;;;;;;;;;7.65;51.21;99423.28;5021208;28;19918;-79
2021/01/30 01:18:44;;;;;;;;;;;;;;;7.78;54.12;99426.06;4998321;28;20372;-79
2021/01/30 01:21:28;;;;;;;;;;;;;;;7.55;51.66;99420.16;5003842;28;19914;-78
2021/01/30 01:24:14;;;;;;;;;;;;;;;7.50;50.51;99417.66;5001545;28;19920;-79
2021/01/30 01:26:59;;;;;;;;;;;;;;;7.53;53.74;99419.69;5018311;28;19914;-78
2021/01/30 01:29:43;;;;;;;;;;;;;;;7.61;52.90;99422.38;5019307;28;19913;-79
2021/01/30 01:32:28;;;;;;;;;;;;;;;7.71;49.91;99400.34;5021468;28;19913;-79
2021/01/30 01:35:14;;;;;;;;;;;;;;;7.58;52.13;99414.88;5017562;28;20323;-77
2021/01/30 01:38:00;;;;;;;;;;;;;;;7.70;51.29;99396.03;5015542;28;19913;-78
2021/01/30 01:40:44;;;;;;;;;;;;;;;7.68;50.14;99406.41;5010874;28;19913;-78
2021/01/30 01:43:30;;;;;;;;;;;;;;;7.89;53.22;99408.34;4997677;28;19914;-79
2021/01/30 01:46:14;;;;;;;;;;;;;;;7.54;52.85;99397.72;5003907;28;19913;-77
2021/01/30 01:49:02;;;;;;;;;;;;;;;7.62;53.36;99402.28;4988454;28;19914;-77
2021/01/30 01:51:48;;;;;;;;;;;;;;;7.58;52.27;99376.22;4986836;28;19917;-78
2021/01/30 01:54:33;;;;;;;;;;;;;;;7.04;51.75;99391.47;4998099;28;19918;-78
2021/01/30 01:57:18;;;;;;;;;;;;;;;6.86;52.00;99396.91;5004238;28;19913;-78
2021/01/30 02:00:04;;;;;;;;;;;;;;;7.07;51.46;99396.19;5000318;28;19917;-78
2021/01/30 02:02:53;;;;;;;;;;;;;;;6.78;51.04;99394.25;4997969;28;19918;-80
2021/01/30 02:05:39;;;;;;;;;;;;;;;6.83;50.87;99392.16;5021102;28;19913;-80
2021/01/30 02:08:24;;;;;;;;;;;;;;;6.66;52.06;99386.00;5018340;28;20388;-79
2021/01/30 02:11:10;;;;;;;;;;;;;;;6.87;52.63;99387.69;5011661;28;19913;-79
2021/01/30 02:13:55;;;;;;;;;;;;;;;6.97;51.93;99386.53;4999284;28;20384;-79
2021/01/30 02:16:53;;;;;;;;;;;;;;;7.01;52.54;99381.31;4996825;28;19918;-80
2021/01/30 02:19:53;;;;;;;;;;;;;;;6.96;52.91;99384.19;4993847;28;19914;-81
2021/01/30 02:22:41;;;;;;;;;;;;;;;6.93;52.06;99392.91;5000614;28;19913;-82
2021/01/30 02:25:26;;;;;;;;;;;;;;;7.06;52.52;99394.63;4997500;28;19918;-82
2021/01/30 02:28:14;;;;;;;;;;;;;;;6.98;52.84;99392.75;4985020;28;19913;-82
2021/01/30 02:30:59;;;;;;;;;;;;;;;7.18;55.68;99397.44;5005837;28;19913;-82
2021/01/30 02:34:12;;;;;;;;;;;;;;;7.12;53.72;99386.00;5003930;28;19917;-82
2021/01/30 02:37:01;;;;;;;;;;;;;;;7.30;51.65;99376.72;4986766;28;19917;-81
2021/01/30 02:39:54;;;;;;;;;;;;;;;7.24;50.69;99371.81;4985030;28;19914;-81
2021/01/30 02:42:48;;;;;;;;;;;;;;;7.36;52.29;99381.94;4996544;28;19914;-81
2021/01/30 02:45:35;;;;;;;;;;;;;;;7.29;51.12;99385.94;4992905;28;19914;-81
2021/01/30 02:48:25;;;;;;;;;;;;;;;7.26;51.60;99394.69;5015580;28;19913;-80
2021/01/30 02:51:12;;;;;;;;;;;;;;;7.19;53.78;99390.91;5005107;28;20295;-81
2021/01/30 02:53:59;;;;;;;;;;;;;;;7.45;55.74;99393.50;5004201;28;19913;-81
2021/01/30 02:56:45;;;;;;;;;;;;;;;7.59;58.26;99396.75;4997197;28;19925;-81
2021/01/30 02:59:29;;;;;;;;;;;;;;;7.73;60.05;99402.69;5000981;28;19913;-81
2021/01/30 03:02:14;;;;;;;;;;;;;;;7.77;63.71;99406.34;5022690;28;20523;-80
2021/01/30 03:05:00;;;;;;;;;;;;;;;7.88;64.49;99404.03;4996389;28;19913;-81
2021/01/30 03:07:54;;;;;;;;;;;;;;;7.81;64.18;99391.03;5016072;28;20302;-80
2021/01/30 03:10:49;;;;;;;;;;;;;;;7.70;60.51;99379.81;4997285;28;20395;-80
2021/01/30 03:13:41;;;;;;;;;;;;;;;7.73;54.89;99364.81;4995289;28;19914;-81
2021/01/30 03:16:29;;;;;;;;;;;;;;;7.40;53.54;99377.44;5000167;28;20318;-78
2021/01/30 03:19:17;;;;;;;;;;;;;;;7.61;54.52;99383.69;5002348;28;19913;-77
2021/01/30 03:22:05;;;;;;;;;;;;;;;7.58;52.97;99387.84;4999544;28;19913;-81
2021/01/30 03:24:51;;;;;;;;;;;;;;;7.28;51.21;99391.66;4998358;28;19914;-77
2021/01/30 03:27:35;;;;;;;;;;;;;;;7.34;51.88;99384.16;4982860;28;19913;-81
2021/01/30 03:30:20;;;;;;;;;;;;;;;7.13;52.25;99390.31;4999260;28;19913;-80
2021/01/30 03:33:04;;;;;;;;;;;;;;;6.99;51.44;99394.34;5027688;28;19921;-79
2021/01/30 03:35:49;;;;;;;;;;;;;;;7.35;57.73;99383.06;4994796;28;19925;-83
2021/01/30 03:38:33;;;;;;;;;;;;;;;7.10;52.59;99390.97;4997573;28;20376;-80
2021/01/30 03:41:18;;;;;;;;;;;;;;;7.00;51.82;99406.75;5014558;28;19913;-81
2021/01/30 03:44:03;;;;;;;;;;;;;;;7.15;53.11;99406.19;5001361;28;20388;-81
2021/01/30 03:46:47;;;;;;;;;;;;;;;7.35;55.25;99413.59;5013106;28;19913;-81
2021/01/30 03:49:31;;;;;;;;;;;;;;;7.57;61.01;99421.41;5000440;28;19913;-81
2021/01/30 03:52:16;;;;;;;;;;;;;;;7.48;56.46;99445.00;5000103;28;20290;-80
2021/01/30 03:55:00;;;;;;;;;;;;;;;7.23;51.73;99456.72;4987783;28;19918;-79
2021/01/30 03:57:45;;;;;;;;;;;;;;;7.28;50.81;99453.84;4995844;28;19913;-81
2021/01/30 04:00:29;;;;;;;;;;;;;;;7.10;51.74;99455.03;5006387;28;19913;-79
2021/01/30 04:03:14;;;;;;;;;;;;;;;6.93;52.74;99428.84;5012515;28;19913;-79
2021/01/30 04:05:59;;;;;;;;;;;;;;;7.01;50.99;99440.75;5031751;28;19913;-81
2021/01/30 04:08:43;;;;;;;;;;;;;;;6.94;51.21;99452.06;4998514;28;19913;-79
2021/01/30 04:11:29;;;;;;;;;;;;;;;6.82;51.79;99450.00;4995123;28;19914;-81
2021/01/30 04:14:14;;;;;;;;;;;;;;;6.90;51.79;99445.72;4992979;28;20281;-79
2021/01/30 04:16:58;;;;;;;;;;;;;;;6.77;51.53;99452.88;4982838;28;19918;-80
2021/01/30 04:19:43;;;;;;;;;;;;;;;6.84;52.45;99450.50;4981186;28;19914;-79
2021/01/30 04:22:27;;;;;;;;;;;;;;;6.74;51.00;99453.53;4993473;28;20376;-81
2021/01/30 04:25:14;;;;;;;;;;;;;;;6.82;52.54;99450.00;4992779;28;19914;-82
2021/01/30 04:27:58;;;;;;;;;;;;;;;6.73;52.20;99451.16;4994509;28;19914;-80
2021/01/30 04:30:43;;;;;;;;;;;;;;;6.71;51.54;99451.44;4979601;28;19914;-79
2021/01/30 04:33:27;;;;;;;;;;;;;;;6.76;51.65;99451.28;4992675;28;19914;-79
2021/01/30 04:36:12;;;;;;;;;;;;;;;6.92;51.86;99448.88;4995820;28;19918;-79
2021/01/30 04:38:58;;;;;;;;;;;;;;;7.09;54.95;99448.03;5031094;23;19925;-86
2021/01/30 04:41:46;;;;;;;;;;;;;;;7.11;55.86;99462.81;5016721;28;19921;-83
2021/01/30 04:44:57;;;;;;;;;;;;;;;7.02;53.85;99459.34;5000903;28;19917;-85
2021/01/30 04:47:42;;;;;;;;;;;;;;;6.94;53.54;99443.94;5009520;28;19913;-85
2021/01/30 04:50:33;;;;;;;;;;;;;;;7.19;60.56;99453.09;5022724;28;19917;-84
2021/01/30 04:53:43;;;;;;;;;;;;;;;6.89;54.48;99444.13;5006849;28;19914;-84
2021/01/30 04:56:51;;;;;;;;;;;;;;;6.77;52.19;99452.88;4986419;28;19918;-84
2021/01/30 04:59:59;;;;;;;;;;;;;;;6.73;52.15;99462.75;4989558;28;19913;-84
2021/01/30 05:02:50;;;;;;;;;;;;;;;6.96;52.25;99459.84;5005803;28;19913;-85
2021/01/30 05:05:37;;;;;;;;;;;;;;;7.03;53.78;99458.22;5018566;28;19914;-83
2021/01/30 05:08:25;;;;;;;;;;;;;;;6.98;54.90;99454.91;5000168;28;20383;-84
2021/01/30 05:11:14;;;;;;;;;;;;;;;7.08;56.26;99452.66;5015437;28;19913;-83
2021/01/30 05:14:06;;;;;;;;;;;;;;;7.14;55.27;99451.34;5006140;28;20431;-84
2021/01/30 05:16:58;;;;;;;;;;;;;;;7.24;56.02;99450.22;5015477;28;19922;-84
2021/01/30 05:19:46;;;;;;;;;;;;;;;7.27;54.17;99438.75;4999737;28;19913;-86
2021/01/30 05:22:37;;;;;;;;;;;;;;;7.23;57.80;99432.41;4989494;28;19918;-86
2021/01/30 05:25:23;;;;;;;;;;;;;;;7.25;56.84;99438.28;5002544;28;19917;-86
2021/01/30 05:28:24;;;;;;;;;;;;;;;7.19;54.38;99436.88;4986792;28;19914;-86
2021/01/30 05:31:09;;;;;;;;;;;;;;;7.26;58.29;99431.75;4990387;28;19914;-84
2021/01/30 05:34:14;;;;;;;;;;;;;;;7.21;58.62;99434.66;4988750;28;19914;-84
2021/01/30 05:37:04;;;;;;;;;;;;;;;7.07;55.19;99445.66;4986490;28;19918;-84
2021/01/30 05:39:55;;;;;;;;;;;;;;;6.68;53.32;99452.09;5004179;28;19913;-84
2021/01/30 05:42:44;;;;;;;;;;;;;;;6.41;53.41;99449.72;4995785;28;19914;-85
2021/01/30 05:45:36;;;;;;;;;;;;;;;6.69;56.97;99459.09;4986348;28;20380;-84
2021/01/30 05:48:23;;;;;;;;;;;;;;;6.77;55.42;99454.78;4975596;28;19932;-83
2021/01/30 05:51:20;;;;;;;;;;;;;;;7.05;59.31;99458.72;4987602;28;19914;-84
2021/01/30 05:54:04;;;;;;;;;;;;;;;7.10;56.53;99463.94;5005349;28;19913;-84
2021/01/30 05:56:49;;;;;;;;;;;;;;;7.22;58.30;99461.34;5017652;28;19918;-83
2021/01/30 05:59:34;;;;;;;;;;;;;;;7.01;53.58;99473.97;4974425;28;19913;-84
2021/01/30 06:02:19;;;;;;;;;;;;;;;7.17;59.54;99485.03;4987628;28;19914;-84
2021/01/30 06:05:17;;;;;;;;;;;;;;;7.44;65.04;99491.97;4995792;28;19935;-85
2021/01/30 06:08:09;;;;;;;;;;;;;;;7.67;67.76;99480.56;5021775;28;19917;-86
2021/01/30 06:11:04;;;;;;;;;;;;;;;7.61;67.91;99467.56;5020888;28;19914;-84
2021/01/30 06:13:52;;;;;;;;;;;;;;;7.61;65.83;99468.34;5011229;28;19913;-84
2021/01/30 06:16:44;;;;;;;;;;;;;;;7.50;63.70;99479.84;5024331;28;19917;-82
2021/01/30 06:19:34;;;;;;;;;;;;;;;7.53;61.78;99466.47;5007023;28;19913;-83
2021/01/30 06:22:22;;;;;;;;;;;;;;;7.58;64.94;99458.16;5018132;28;19913;-83
2021/01/30 06:25:22;;;;;;;;;;;;;;;7.61;65.38;99454.84;5002915;28;20363;-84
2021/01/30 06:28:15;;;;;;;;;;;;;;;7.68;65.17;99446.97;5014721;28;19913;-83
2021/01/30 06:31:15;;;;;;;;;;;;;;;7.82;67.28;99435.13;5008873;28;19913;-83
2021/01/30 06:34:19;;;;;;;;;;;;;;;7.57;61.31;99432.22;5006315;28;19913;-82
2021/01/30 06:37:08;;;;;;;;;;;;;;;7.49;60.80;99424.16;5006000;28;19918;-82
2021/01/30 06:40:04;;;;;;;;;;;;;;;7.50;61.83;99431.97;4984870;28;19913;-84
2021/01/30 06:42:50;;;;;;;;;;;;;;;7.61;65.58;99427.78;5026849;28;19913;-82
2021/01/30 06:45:42;;;;;;;;;;;;;;;7.69;67.91;99436.94;4994656;28;19914;-84
2021/01/30 06:48:29;;;;;;;;;;;;;;;7.74;69.34;99432.16;5007166;28;19913;-83
2021/01/30 06:51:25;;;;;;;;;;;;;;;7.64;62.84;99419.00;5012933;28;19913;-83
2021/01/30 06:54:17;;;;;;;;;;;;;;;7.58;62.38;99441.94;5010159;28;19913;-84
2021/01/30 06:57:18;;;;;;;;;;;;;;;7.83;69.18;99444.81;5017519;28;19921;-84
2021/01/30 07:00:06;;;;;;;;;;;;;;;7.87;70.33;99430.34;5007999;28;20291;-84
2021/01/30 07:03:03;;;;;;;;;;;;;;;7.71;65.22;99432.81;4994789;28;19925;-84
2021/01/30 07:05:51;;;;;;;;;;;;;;;7.49;60.81;99430.38;5025515;28;19913;-85
2021/01/30 07:08:55;;;;;;;;;;;;;;;7.28;57.30;99424.09;5017285;28;19914;-85
2021/01/30 07:11:39;;;;;;;;;;;;;;;7.22;59.76;99431.59;5002624;28;19914;-83
2021/01/30 07:14:33;;;;;;;;;;;;;;;7.16;56.11;99424.78;4995750;28;19913;-83
2021/01/30 07:17:42;;;;;;;;;;;;;;;7.66;64.78;99430.28;5007822;28;19917;-83
2021/01/30 07:20:30;;;;;;;;;;;;;;;9.59;50.53;99422.41;5001070;28;19913;-80
2021/01/30 07:23:14;;;;;;;;;;;;;;;10.07;47.57;99424.25;4992182;28;20380;-80
2021/01/30 07:26:09;;;;;;;;;;;;;;;10.26;46.29;99419.81;4997744;28;19913;-80
2021/01/30 07:28:57;;;;;;;;;;;;;;;10.50;45.88;99412.72;5006616;28;19913;-80
2021/01/30 07:31:46;;;;;;;;;;;;;;;10.55;44.94;99423.34;5013551;28;19914;-81
2021/01/30 07:34:37;;;;;;;;;;;;;;;10.45;45.06;99426.56;5010455;28;19917;-81
2021/01/30 07:37:36;;;;;;;;;;;;;;;10.56;44.37;99425.72;5023747;28;20327;-82
2021/01/30 07:40:24;;;;;;;;;;;;;;;10.61;43.83;99419.25;5003526;28;19921;-81
2021/01/30 07:43:14;;;;;;;;;;;;;;;10.53;42.87;99409.31;5012227;28;19914;-81
2021/01/30 07:46:09;;;;;;;;;;;;;;;10.36;42.79;99424.00;4997820;28;19914;-81
2021/01/30 07:48:54;;;;;;;;;;;;;;;10.13;42.31;99410.09;5003024;28;19913;-82
2021/01/30 07:51:45;;;;;;;;;;;;;;;9.88;42.55;99397.72;5022889;28;19914;-80
2021/01/30 07:54:30;;;;;;;;;;;;;;;9.92;42.82;99392.38;5024427;28;19913;-81
2021/01/30 07:57:34;;;;;;;;;;;;;;;10.03;42.63;99388.06;5023922;28;19917;-80
2021/01/30 08:00:20;;;;;;;;;;;;;;;9.97;42.78;99382.06;5009867;28;19913;-80
2021/01/30 08:03:08;;;;;;;;;;;;;;;9.99;42.59;99382.53;4999597;28;20407;-81
2021/01/30 08:05:59;;;;;;;;;;;;;;;10.02;42.33;99391.91;5024018;28;20311;-82
2021/01/30 08:09:02;;;;;;;;;;;;;;;10.01;42.36;99395.75;5009333;28;20536;-82
2021/01/30 08:12:07;;;;;;;;;;;;;;;10.04;42.10;99393.16;5006055;28;19918;-81
2021/01/30 08:14:58;;;;;;;;;;;;;;;9.98;42.12;99380.94;4991248;28;19917;-81
2021/01/30 08:17:55;;;;;;;;;;;;;;;9.90;42.07;99379.16;4998263;28;19917;-81
2021/01/30 08:21:03;;;;;;;;;;;;;;;9.91;42.19;99372.56;5000562;28;19913;-83
2021/01/30 08:23:54;;;;;;;;;;;;;;;9.94;42.56;99385.50;4991028;28;19913;-80
2021/01/30 08:26:41;;;;;;;;;;;;;;;8.05;48.12;99401.22;5003969;28;19917;-79
2021/01/30 08:29:34;;;;;;;;;;;;;;;7.19;52.47;99401.72;5009125;28;19913;-78
2021/01/30 08:32:24;;;;;;;;;;;;;;;6.69;54.34;99401.56;5000701;28;20368;-78
2021/01/30 08:35:21;;;;;;;;;;;;;;;6.14;57.06;99404.97;5025170;28;19913;-79
2021/01/30 08:38:30;;;;;;;;;;;;;;;6.01;58.15;99411.31;5000411;28;19914;-78
2021/01/30 08:41:24;;;;;;;;;;;;;;;5.92;59.28;99403.22;5008099;28;19917;-77
2021/01/30 08:44:18;;;;;;;;;;;;;;;6.00;59.61;99401.63;5014781;28;19913;-77
2021/01/30 08:47:07;;;;;;;;;;;;;;;5.99;59.54;99406.22;5020701;28;19913;-77
2021/01/30 08:50:05;;;;;;;;;;;;;;;6.15;59.05;99409.25;5012769;28;19914;-78
2021/01/30 08:52:54;;;;;;;;;;;;;;;6.14;58.85;99417.69;5007227;28;19913;-79
2021/01/30 08:55:45;;;;;;;;;;;;;;;6.18;59.01;99424.03;5012602;28;20388;-77
2021/01/30 08:58:35;;;;;;;;;;;;;;;6.05;59.94;99425.75;5021815;28;19913;-78
2021/01/30 09:01:22;;;;;;;;;;;;;;;5.95;60.75;99431.47;5024967;28;19913;-78
2021/01/30 09:04:26;;;;;;;;;;;;;;;5.90;61.98;99428.91;5021296;28;19913;-77
2021/01/30 09:07:31;;;;;;;;;;;;;;;5.72;62.92;99432.66;5028213;28;19917;-78
2021/01/30 09:10:18;;;;;;;;;;;;;;;6.30;60.80;99424.16;5006848;28;19914;-77
2021/01/30 09:13:02;;;;;;;;;;;;;;;6.67;58.86;99423.50;5019481;28;19914;-78
2021/01/30 09:15:46;;;;;;;;;;;;;;;6.72;58.59;99420.63;5016028;28;19918;-78
2021/01/30 09:18:31;;;;;;;;;;;;;;;7.12;56.84;99417.66;5013925;28;19917;-76
2021/01/30 09:21:34;;;;;;;;;;;;;;;6.85;57.16;99419.66;5003419;28;19913;-77
2021/01/30 09:24:30;;;;;;;;;;;;;;;7.30;56.75;99411.06;5020163;28;19917;-80
2021/01/30 09:27:21;;;;;;;;;;;;;;;7.53;55.85;99420.50;5012667;28;20384;-78
2021/01/30 09:30:27;;;;;;;;;;;;;;;7.82;54.26;99419.69;5002393;28;19913;-79
2021/01/30 09:33:22;;;;;;;;;;;;;;;7.83;53.53;99423.97;4998329;28;20303;-78
2021/01/30 09:36:10;;;;;;;;;;;;;;;7.87;52.36;99419.50;4983339;28;20412;-77
2021/01/30 09:38:59;;;;;;;;;;;;;;;7.92;53.14;99422.03;4996646;28;19914;-78
2021/01/30 09:41:43;;;;;;;;;;;;;;;7.47;52.55;99424.50;5004728;28;19913;-78
2021/01/30 09:44:28;;;;;;;;;;;;;;;7.44;53.07;99430.56;5021665;28;19913;-78
2021/01/30 09:47:18;;;;;;;;;;;;;;;7.19;53.75;99436.88;5003056;28;19913;-78
2021/01/30 09:50:11;;;;;;;;;;;;;;;6.80;55.39;99440.66;5023723;28;20291;-78
2021/01/30 09:52:58;;;;;;;;;;;;;;;6.41;56.80;99433.53;5029196;28;20368;-78
2021/01/30 09:55:43;;;;;;;;;;;;;;;6.67;55.66;99438.91;5026318;28;20383;-78
2021/01/30 09:58:28;;;;;;;;;;;;;;;6.57;55.73;99450.84;5038788;28;19917;-78
2021/01/30 10:01:22;;;;;;;;;;;;;;;5.80;58.47;99458.84;5038513;28;19913;-78
2021/01/30 10:04:17;;;;;;;;;;;;;;;5.97;57.93;99462.41;5035256;28;20295;-78
2021/01/30 10:07:06;;;;;;;;;;;;;;;6.00;58.71;99466.38;5020472;28;20326;-77
2021/01/30 10:09:51;;;;;;;;;;;;;;;5.67;60.66;99471.38;5034321;28;19913;-78
2021/01/30 10:12:36;;;;;;;;;;;;;;;5.83;60.53;99466.34;5034406;28;19913;-79
2021/01/30 10:15:29;;;;;;;;;;;;;;;5.87;59.99;99462.72;5039612;28;19917;-78
2021/01/30 10:18:15;;;;;;;;;;;;;;;5.92;60.45;99476.06;5023909;28;20287;-82
2021/01/30 10:21:01;;;;;;;;;;;;;;;6.12;59.26;99477.34;5024265;28;19913;-82
2021/01/30 10:23:48;;;;;;;;;;;;;;;6.25;59.08;99481.00;5037879;28;19920;-82
2021/01/30 10:26:32;;;;;;;;;;;;;;;6.14;58.99;99474.34;5023226;28;19917;-80
2021/01/30 10:29:18;;;;;;;;;;;;;;;6.22;58.63;99474.34;5038586;28;19913;-82
2021/01/30 10:32:08;;;;;;;;;;;;;;;5.91;59.25;99458.28;5036518;28;19913;-84
2021/01/30 10:34:58;;;;;;;;;;;;;;;6.13;59.94;99454.66;5027205;28;19912;-83
2021/01/30 10:37:46;;;;;;;;;;;;;;;6.22;58.82;99443.88;5045364;22;19921;-77
2021/01/30 10:40:32;;;;;;;;;;;;;;;6.25;59.18;99435.91;4994673;28;19921;-77
2021/01/30 10:43:20;;;;;;;;;;;;;;;6.45;59.88;99431.78;4984280;28;19914;-77
2021/01/30 10:46:04;;;;;;;;;;;;;;;6.53;60.03;99433.69;4997350;28;19917;-78
2021/01/30 10:48:49;;;;;;;;;;;;;;;6.59;59.89;99435.13;4985835;28;19913;-77
2021/01/30 10:51:36;;;;;;;;;;;;;;;6.58;58.77;99428.13;4969086;28;19914;-76
2021/01/30 10:54:25;;;;;;;;;;;;;;;6.49;59.19;99424.66;4977327;28;20356;-77
2021/01/30 10:57:12;;;;;;;;;;;;;;;6.64;57.89;99428.75;4952624;28;19918;-77
2021/01/30 11:00:02;;;;;;;;;;;;;;;6.55;57.88;99417.19;4962449;28;19914;-78
2021/01/30 11:02:47;;;;;;;;;;;;;;;6.41;57.96;99406.53;4963257;28;19914;-79
2021/01/30 11:05:32;;;;;;;;;;;;;;;6.62;57.48;99412.06;4966548;28;19914;-78
2021/01/30 11:08:29;;;;;;;;;;;;;;;6.62;57.19;99412.06;4976715;28;19914;-78
2021/01/30 11:11:21;;;;;;;;;;;;;;;6.54;58.05;99410.97;4975765;28;19917;-79
2021/01/30 11:14:18;;;;;;;;;;;;;;;6.63;58.29;99416.38;4965653;28;19918;-78
2021/01/30 11:17:03;;;;;;;;;;;;;;;6.94;56.86;99416.94;4963660;28;20308;-78
2021/01/30 11:19:48;;;;;;;;;;;;;;;7.01;57.07;99417.19;4949054;28;19914;-79
2021/01/30 11:22:33;;;;;;;;;;;;;;;7.07;56.34;99410.50;4977018;28;20277;-81
2021/01/30 11:25:30;;;;;;;;;;;;;;;7.01;57.08;99402.94;4977797;28;19914;-79
2021/01/30 11:28:32;;;;;;;;;;;;;;;7.08;58.14;99398.59;4966082;28;20081;-79
2021/01/30 11:31:18;;;;;;;;;;;;;;;7.15;57.17;99376.47;4964031;28;19914;-78
2021/01/30 11:34:02;;;;;;;;;;;;;;;7.17;58.12;99382.31;4961363;28;19914;-78
2021/01/30 11:36:47;;;;;;;;;;;;;;;7.15;57.60;99385.38;4979699;28;19918;-77
2021/01/30 11:39:32;;;;;;;;;;;;;;;7.13;58.13;99384.09;4975707;28;19914;-77
2021/01/30 11:42:16;;;;;;;;;;;;;;;6.92;59.21;99378.63;4975353;28;19914;-77
2021/01/30 11:45:01;;;;;;;;;;;;;;;6.92;58.59;99375.91;4974563;28;19914;-78
2021/01/30 11:47:46;;;;;;;;;;;;;;;6.94;58.95;99373.69;4961425;28;19914;-79
2021/01/30 11:50:30;;;;;;;;;;;;;;;6.93;59.63;99357.78;4961767;28;19914;-81
2021/01/30 11:53:18;;;;;;;;;;;;;;;7.01;59.29;99355.03;4979270;28;19917;-79
2021/01/30 11:56:02;;;;;;;;;;;;;;;7.01;58.28;99348.88;4960787;28;19918;-80
2021/01/30 11:58:47;;;;;;;;;;;;;;;7.05;58.83;99336.28;4975574;28;19914;-80
2021/01/30 12:01:31;;;;;;;;;;;;;;;7.27;58.62;99327.88;4965415;28;19914;-80
2021/01/30 12:04:16;;;;;;;;;;;;;;;7.18;58.07;99332.56;4963428;28;20284;-79
2021/01/30 12:07:01;;;;;;;;;;;;;;;7.27;58.41;99330.59;4974915;28;19914;-79
2021/01/30 12:09:46;;;;;;;;;;;;;;;7.39;58.22;99321.78;4960612;28;19913;-81
2021/01/30 12:12:30;;;;;;;;;;;;;;;7.14;58.76;99318.91;4963195;28;19914;-81
2021/01/30 12:15:15;;;;;;;;;;;;;;;7.32;59.12;99314.19;4990457;28;20008;-80
2021/01/30 12:17:59;;;;;;;;;;;;;;;7.48;58.41;99326.00;4980550;28;19922;-80
2021/01/30 12:20:45;;;;;;;;;;;;;;;7.26;59.04;99315.50;4980150;28;19914;-79
2021/01/30 12:23:30;;;;;;;;;;;;;;;7.23;59.22;99302.63;4981539;28;19914;-81
2021/01/30 12:26:18;;;;;;;;;;;;;;;7.52;59.88;99296.38;4966042;28;19913;-79
2021/01/30 12:29:03;;;;;;;;;;;;;;;7.62;58.61;99285.97;4979580;28;19914;-79
2021/01/30 12:31:48;;;;;;;;;;;;;;;7.67;58.28;99284.97;4967815;28;19914;-80
2021/01/30 12:34:32;;;;;;;;;;;;;;;7.81;57.27;99282.00;4993851;28;20020;-78
2021/01/30 12:37:17;;;;;;;;;;;;;;;7.80;58.59;99275.00;4962576;28;19918;-81
2021/01/30 12:40:03;;;;;;;;;;;;;;;7.84;57.54;99265.09;4948620;28;19914;-79
2021/01/30 12:42:49;;;;;;;;;;;;;;;7.91;57.27;99273.47;4958770;28;19914;-84
2021/01/30 12:45:34;;;;;;;;;;;;;;;7.91;57.50;99265.38;4982615;28;19914;-80
2021/01/30 12:48:18;;;;;;;;;;;;;;;7.98;56.98;99260.19;4980289;28;19914;-80
2021/01/30 12:51:04;;;;;;;;;;;;;;;8.04;57.15;99267.78;4979700;28;19914;-80
2021/01/30 12:53:49;;;;;;;;;;;;;;;8.14;56.93;99261.16;4978201;28;20284;-81
2021/01/30 12:56:34;;;;;;;;;;;;;;;8.23;55.94;99263.78;4981238;28;19918;-80
2021/01/30 12:59:19;;;;;;;;;;;;;;;8.21;56.04;99266.03;4993110;28;19913;-80
2021/01/30 13:02:04;;;;;;;;;;;;;;;8.18;56.36;99262.06;4969698;28;19914;-81
2021/01/30 13:04:48;;;;;;;;;;;;;;;8.22;56.15;99252.16;4967397;28;19914;-79
2021/01/30 13:07:33;;;;;;;;;;;;;;;8.29;55.93;99249.66;4965918;28;19926;-80
2021/01/30 13:10:18;;;;;;;;;;;;;;;8.31;56.04;99244.75;4982931;28;19913;-82
2021/01/30 13:13:04;;;;;;;;;;;;;;;8.36;55.52;99239.13;4970956;28;19913;-82
2021/01/30 13:15:48;;;;;;;;;;;;;;;8.39;55.53;99251.19;4993096;28;19914;-79
2021/01/30 13:18:32;;;;;;;;;;;;;;;8.44;55.53;99249.03;4982156;28;19921;-79
2021/01/30 13:21:17;;;;;;;;;;;;;;;8.49;54.46;99237.19;4981571;28;20296;-82
2021/01/30 13:24:01;;;;;;;;;;;;;;;8.53;54.35;99241.59;4978878;28;19913;-80
2021/01/30 13:26:46;;;;;;;;;;;;;;;8.54;54.53;99235.06;4984273;28;20385;-78
2021/01/30 13:29:32;;;;;;;;;;;;;;;8.62;54.77;99227.97;4979897;28;20400;-80
2021/01/30 13:32:17;;;;;;;;;;;;;;;8.66;54.83;99228.06;4979970;28;19913;-80
2021/01/30 13:35:01;;;;;;;;;;;;;;;8.73;54.97;99217.47;4978260;28;20376;-81
2021/01/30 13:37:46;;;;;;;;;;;;;;;8.83;54.81;99211.59;4977954;28;19917;-82
2021/01/30 13:40:30;;;;;;;;;;;;;;;8.92;54.31;99199.50;4966876;28;19914;-79
2021/01/30 13:43:16;;;;;;;;;;;;;;;8.85;54.17;99201.19;4993062;28;19917;-81
2021/01/30 13:46:00;;;;;;;;;;;;;;;8.84;53.64;99207.72;4984361;28;19913;-80
2021/01/30 13:48:45;;;;;;;;;;;;;;;8.93;53.93;99200.28;4979615;28;20362;-80
2021/01/30 13:51:29;;;;;;;;;;;;;;;8.98;53.92;99192.72;4945545;28;19914;-82
2021/01/30 13:54:14;;;;;;;;;;;;;;;8.95;54.07;99198.00;4958261;28;19914;-80
2021/01/30 13:56:59;;;;;;;;;;;;;;;8.99;54.07;99188.84;4960688;28;19918;-81
2021/01/30 13:59:43;;;;;;;;;;;;;;;8.90;54.38;99179.25;4958854;28;19914;-81
2021/01/30 14:02:28;;;;;;;;;;;;;;;8.94;54.12;99170.09;4976447;28;20313;-80
2021/01/30 14:05:12;;;;;;;;;;;;;;;9.01;53.99;99159.50;4977414;28;19914;-83
2021/01/30 14:07:58;;;;;;;;;;;;;;;9.07;53.97;99168.19;4966253;28;19914;-82
2021/01/30 14:10:42;;;;;;;;;;;;;;;8.93;54.07;99163.13;4969398;28;20283;-83
2021/01/30 14:13:27;;;;;;;;;;;;;;;8.99;54.19;99171.78;4968221;28;19914;-83
2021/01/30 14:16:12;;;;;;;;;;;;;;;8.95;54.65;99171.69;4965619;28;19914;-82
2021/01/30 14:18:56;;;;;;;;;;;;;;;9.00;54.20;99157.09;4952862;28;20372;-83
2021/01/30 14:21:41;;;;;;;;;;;;;;;9.02;54.27;99149.44;4981288;28;19914;-83
2021/01/30 14:24:25;;;;;;;;;;;;;;;9.02;54.68;99144.81;4977329;28;19917;-83
2021/01/30 14:27:09;;;;;;;;;;;;;;;8.98;54.71;99143.91;4986356;28;19918;-83
2021/01/30 14:29:54;;;;;;;;;;;;;;;9.02;54.26;99139.38;4983470;28;20459;-80
2021/01/30 14:32:38;;;;;;;;;;;;;;;8.97;54.69;99142.34;4971938;28;19917;-81
2021/01/30 14:35:25;;;;;;;;;;;;;;;9.13;54.54;99130.75;4983203;28;19917;-82
2021/01/30 14:38:11;;;;;;;;;;;;;;;9.21;54.47;99118.97;4994074;28;19926;-81
2021/01/30 14:40:55;;;;;;;;;;;;;;;9.17;54.62;99110.75;4996616;28;19918;-82
2021/01/30 14:43:40;;;;;;;;;;;;;;;9.10;54.90;99105.13;4995809;28;19913;-82
2021/01/30 14:46:24;;;;;;;;;;;;;;;9.10;54.62;99101.59;4985799;28;20395;-81
2021/01/30 14:49:09;;;;;;;;;;;;;;;9.16;54.97;99101.03;4962094;28;19914;-82